Wetterdaten: Woche 04.10.04 - 10.10.04 (KW41)
Datum Zeit Temperatur Luftfeuchte Luftdruck Niederschlag Taupunkt Windchill Wind
04.10.2004 00:00 8,8 C 93 % 1022 hPa 0,0 l/m 7,6 C 8,8 C 0,0 km/h (0 Bft)
04.10.2004 01:00 8,1 C 93 % 1022 hPa 0,0 l/m 7,1 C 8,1 C 0,0 km/h (0 Bft)
04.10.2004 02:00 7,5 C 94 % 1022 hPa 0,0 l/m 6,7 C 7,5 C 0,0 km/h (0 Bft)
04.10.2004 03:00 7,0 C 96 % 1021 hPa 0,0 l/m 6,4 C 7,0 C 0,0 km/h (0 Bft)
04.10.2004 04:00 6,7 C 97 % 1021 hPa 0,0 l/m 6,3 C 6,7 C 0,0 km/h (0 Bft)
04.10.2004 05:00 6,4 C 97 % 1021 hPa 0,0 l/m 5,9 C 6,4 C 0,0 km/h (0 Bft)
04.10.2004 06:00 5,9 C 98 % 1021 hPa 0,0 l/m 5,5 C 5,9 C 0,0 km/h (0 Bft)
04.10.2004 07:00 5,6 C 98 % 1020 hPa 0,0 l/m 5,3 C 5,6 C 0,0 km/h (0 Bft)
04.10.2004 08:00 6,3 C 98 % 1020 hPa 0,0 l/m 6,0 C 6,3 C 0,0 km/h (0 Bft)
04.10.2004 09:00 8,7 C 98 % 1020 hPa 0,0 l/m 8,4 C 8,7 C 0,0 km/h (0 Bft)
04.10.2004 10:00 12,9 C 93 % 1020 hPa 0,0 l/m 11,7 C 12,7 C 2,4 km/h (1 Bft)
04.10.2004 11:00 17,2 C 69 % 1020 hPa 0,0 l/m 11,4 C 16,6 C 6,9 km/h (2 Bft)
04.10.2004 12:00 19,4 C 60 % 1020 hPa 0,0 l/m 11,3 C 18,4 C 9,0 km/h (2 Bft)
04.10.2004 13:00 19,9 C 61 % 1020 hPa 0,0 l/m 12,3 C 18,2 C 12,9 km/h (3 Bft)
04.10.2004 14:00 20,1 C 60 % 1020 hPa 0,0 l/m 12,2 C 18,2 C 12,5 km/h (3 Bft)
04.10.2004 15:00 20,3 C 56 % 1019 hPa 0,0 l/m 11,3 C 19,2 C 7,3 km/h (2 Bft)
04.10.2004 16:00 19,9 C 61 % 1019 hPa 0,0 l/m 12,2 C 19,3 C 3,3 km/h (1 Bft)
04.10.2004 17:00 19,3 C 66 % 1019 hPa 0,0 l/m 12,8 C 19,3 C 0,0 km/h (0 Bft)
04.10.2004 18:00 17,8 C 71 % 1019 hPa 0,0 l/m 12,6 C 17,8 C 0,0 km/h (0 Bft)
04.10.2004 19:00 16,0 C 78 % 1019 hPa 0,0 l/m 12,1 C 16,0 C 0,0 km/h (0 Bft)
04.10.2004 20:00 14,3 C 83 % 1019 hPa 0,0 l/m 11,5 C 14,3 C 0,0 km/h (0 Bft)
04.10.2004 21:00 13,1 C 88 % 1019 hPa 0,0 l/m 11,1 C 13,1 C 0,0 km/h (0 Bft)
04.10.2004 22:00 12,3 C 92 % 1019 hPa 0,0 l/m 11,0 C 12,3 C 0,0 km/h (0 Bft)
04.10.2004 23:00 11,4 C 93 % 1019 hPa 0,0 l/m 10,3 C 11,4 C 0,0 km/h (0 Bft)
05.10.2004 00:00 10,5 C 94 % 1019 hPa 0,0 l/m 9,6 C 10,5 C 0,0 km/h (0 Bft)
05.10.2004 01:00 10,0 C 95 % 1019 hPa 0,0 l/m 9,3 C 10,0 C 0,0 km/h (0 Bft)
05.10.2004 02:00 9,5 C 96 % 1019 hPa 0,0 l/m 8,9 C 9,5 C 0,0 km/h (0 Bft)
05.10.2004 03:00 8,9 C 97 % 1019 hPa 0,0 l/m 8,4 C 8,9 C 0,0 km/h (0 Bft)
05.10.2004 04:00 8,7 C 97 % 1019 hPa 0,0 l/m 8,3 C 8,7 C 0,0 km/h (0 Bft)
05.10.2004 05:00 8,5 C 98 % 1019 hPa 0,0 l/m 8,2 C 8,5 C 0,0 km/h (0 Bft)
05.10.2004 06:00 8,2 C 98 % 1020 hPa 0,0 l/m 7,9 C 8,2 C 0,0 km/h (0 Bft)
05.10.2004 07:00 8,0 C 98 % 1020 hPa 0,0 l/m 7,7 C 8,0 C 0,0 km/h (0 Bft)
05.10.2004 08:00 9,0 C 98 % 1020 hPa 0,0 l/m 8,7 C 9,0 C 0,0 km/h (0 Bft)
05.10.2004 09:00 11,5 C 98 % 1020 hPa 0,0 l/m 11,2 C 11,5 C 0,0 km/h (0 Bft)
05.10.2004 10:00 16,2 C 83 % 1020 hPa 0,0 l/m 13,1 C 15,8 C 4,7 km/h (1 Bft)
05.10.2004 11:00 20,2 C 54 % 1020 hPa 0,0 l/m 10,4 C 18,8 C 11,5 km/h (2 Bft)
05.10.2004 12:00 21,7 C 47 % 1019 hPa 0,0 l/m 9,8 C 20,3 C 12,5 km/h (3 Bft)
05.10.2004 13:00 23,8 C 43 % 1019 hPa 0,0 l/m 10,3 C 23,4 C 7,0 km/h (2 Bft)
05.10.2004 14:00 25,7 C 40 % 1018 hPa 0,0 l/m 10,9 C 25,6 C 1,7 km/h (1 Bft)
05.10.2004 15:00 25,7 C 39 % 1017 hPa 0,0 l/m 10,7 C 25,7 C 1,0 km/h (0 Bft)
05.10.2004 16:00 24,3 C 43 % 1017 hPa 0,0 l/m 10,8 C 24,0 C 5,9 km/h (2 Bft)
05.10.2004 17:00 22,7 C 53 % 1016 hPa 0,0 l/m 12,6 C 22,7 C 0,6 km/h (0 Bft)
05.10.2004 18:00 20,0 C 64 % 1016 hPa 0,0 l/m 12,9 C 20,0 C 0,0 km/h (0 Bft)
05.10.2004 19:00 17,5 C 70 % 1017 hPa 0,0 l/m 11,9 C 17,5 C 0,0 km/h (0 Bft)
05.10.2004 20:00 15,6 C 80 % 1017 hPa 0,0 l/m 12,2 C 15,6 C 0,0 km/h (0 Bft)
05.10.2004 21:00 15,1 C 85 % 1017 hPa 0,0 l/m 12,6 C 15,1 C 0,0 km/h (0 Bft)
05.10.2004 22:00 14,2 C 88 % 1017 hPa 0,0 l/m 12,2 C 14,2 C 0,0 km/h (0 Bft)
05.10.2004 23:00 13,4 C 92 % 1017 hPa 0,0 l/m 12,1 C 13,4 C 0,0 km/h (0 Bft)
06.10.2004 00:00 12,9 C 94 % 1017 hPa 0,0 l/m 11,9 C 12,9 C 0,0 km/h (0 Bft)
06.10.2004 01:00 12,5 C 95 % 1017 hPa 0,0 l/m 11,6 C 12,5 C 0,0 km/h (0 Bft)
06.10.2004 02:00 12,8 C 96 % 1017 hPa 0,0 l/m 12,2 C 12,8 C 0,0 km/h (0 Bft)
06.10.2004 03:00 12,6 C 96 % 1017 hPa 0,0 l/m 12,0 C 12,6 C 0,0 km/h (0 Bft)
06.10.2004 04:00 12,5 C 96 % 1018 hPa 0,0 l/m 11,8 C 12,5 C 0,0 km/h (0 Bft)
06.10.2004 05:00 12,5 C 97 % 1018 hPa 0,0 l/m 12,1 C 12,5 C 0,0 km/h (0 Bft)
06.10.2004 06:00 12,5 C 97 % 1018 hPa 0,0 l/m 12,1 C 12,5 C 0,0 km/h (0 Bft)
06.10.2004 07:00 12,3 C 97 % 1018 hPa 0,0 l/m 11,9 C 12,3 C 0,0 km/h (0 Bft)
06.10.2004 08:00 12,4 C 98 % 1017 hPa 0,0 l/m 12,0 C 12,4 C 0,0 km/h (0 Bft)
06.10.2004 09:00 14,1 C 98 % 1018 hPa 0,0 l/m 13,7 C 14,1 C 0,2 km/h (0 Bft)
06.10.2004 10:00 16,7 C 82 % 1019 hPa 0,0 l/m 13,5 C 16,7 C 0,3 km/h (0 Bft)
06.10.2004 11:00 18,8 C 67 % 1019 hPa 0,0 l/m 12,5 C 18,0 C 5,9 km/h (2 Bft)
06.10.2004 12:00 18,7 C 62 % 1019 hPa 0,0 l/m 11,3 C 18,4 C 3,1 km/h (1 Bft)
06.10.2004 13:00 19,0 C 64 % 1019 hPa 0,0 l/m 11,9 C 19,0 C 1,8 km/h (1 Bft)
06.10.2004 14:00 20,3 C 56 % 1018 hPa 0,0 l/m 11,4 C 19,9 C 5,6 km/h (1 Bft)
06.10.2004 15:00 20,7 C 53 % 1018 hPa 0,0 l/m 10,7 C 19,7 C 9,6 km/h (2 Bft)
06.10.2004 16:00 18,9 C 58 % 1019 hPa 0,0 l/m 10,3 C 17,9 C 9,2 km/h (2 Bft)
06.10.2004 17:00 17,3 C 70 % 1019 hPa 0,0 l/m 11,7 C 17,0 C 4,7 km/h (1 Bft)
06.10.2004 18:00 15,8 C 82 % 1019 hPa 0,0 l/m 12,7 C 15,7 C 4,3 km/h (1 Bft)
06.10.2004 19:00 15,2 C 84 % 1019 hPa 0,0 l/m 12,6 C 15,0 C 6,0 km/h (2 Bft)
06.10.2004 20:00 14,5 C 91 % 1019 hPa 1,0 l/m 12,9 C 14,3 C 4,6 km/h (1 Bft)
06.10.2004 21:00 14,2 C 93 % 1020 hPa 0,0 l/m 13,0 C 13,7 C 6,6 km/h (2 Bft)
06.10.2004 22:00 14,0 C 95 % 1020 hPa 0,0 l/m 13,1 C 12,7 C 9,9 km/h (2 Bft)
06.10.2004 23:00 13,8 C 97 % 1020 hPa 0,0 l/m 13,3 C 12,3 C 9,7 km/h (2 Bft)
07.10.2004 00:00 13,6 C 98 % 1020 hPa 0,0 l/m 13,3 C 12,0 C 10,2 km/h (2 Bft)
07.10.2004 01:00 13,4 C 98 % 1020 hPa 0,0 l/m 13,1 C 12,5 C 8,5 km/h (2 Bft)
07.10.2004 02:00 13,3 C 98 % 1020 hPa 0,0 l/m 13,0 C 13,1 C 1,7 km/h (1 Bft)
07.10.2004 03:00 11,9 C 94 % 1020 hPa 0,0 l/m 11,0 C 9,5 C 11,4 km/h (2 Bft)
07.10.2004 04:00 11,0 C 92 % 1020 hPa 0,0 l/m 9,8 C 10,1 C 7,2 km/h (2 Bft)
07.10.2004 05:00 10,8 C 92 % 1020 hPa 0,0 l/m 9,6 C 10,6 C 4,0 km/h (1 Bft)
07.10.2004 06:00 10,8 C 92 % 1020 hPa 0,0 l/m 9,6 C 10,8 C 0,0 km/h (0 Bft)
07.10.2004 07:00 10,8 C 94 % 1020 hPa 0,0 l/m 9,8 C 10,6 C 2,5 km/h (1 Bft)
07.10.2004 08:00 10,8 C 95 % 1020 hPa 0,0 l/m 10,0 C 10,6 C 2,9 km/h (1 Bft)
07.10.2004 09:00 11,0 C 93 % 1021 hPa 0,0 l/m 10,0 C 10,6 C 5,5 km/h (1 Bft)
07.10.2004 10:00 11,8 C 89 % 1021 hPa 0,0 l/m 10,1 C 11,2 C 6,2 km/h (2 Bft)
07.10.2004 11:00 12,7 C 84 % 1020 hPa 0,0 l/m 9,9 C 12,4 C 3,3 km/h (1 Bft)
07.10.2004 12:00 13,2 C 85 % 1021 hPa 1,0 l/m 10,7 C 13,0 C 2,9 km/h (1 Bft)
07.10.2004 13:00 14,9 C 81 % 1020 hPa 0,0 l/m 11,6 C 14,4 C 6,7 km/h (2 Bft)
07.10.2004 14:00 15,7 C 78 % 1020 hPa 0,0 l/m 11,8 C 15,5 C 1,5 km/h (1 Bft)
07.10.2004 15:00 16,5 C 74 % 1019 hPa 0,0 l/m 11,9 C 16,5 C 0,5 km/h (0 Bft)
07.10.2004 16:00 16,5 C 74 % 1019 hPa 0,0 l/m 11,8 C 16,5 C 0,0 km/h (0 Bft)
07.10.2004 17:00 16,4 C 74 % 1019 hPa 0,0 l/m 11,7 C 16,4 C 0,0 km/h (0 Bft)
07.10.2004 18:00 15,6 C 79 % 1019 hPa 0,0 l/m 12,0 C 15,5 C 1,7 km/h (1 Bft)
07.10.2004 19:00 14,5 C 85 % 1019 hPa 0,0 l/m 12,0 C 14,4 C 3,0 km/h (1 Bft)
07.10.2004 20:00 13,7 C 90 % 1019 hPa 0,0 l/m 12,2 C 13,6 C 1,5 km/h (1 Bft)
07.10.2004 21:00 13,2 C 93 % 1019 hPa 0,0 l/m 12,1 C 13,2 C 0,1 km/h (0 Bft)
07.10.2004 22:00 13,0 C 95 % 1018 hPa 0,0 l/m 12,2 C 13,0 C 0,0 km/h (0 Bft)
07.10.2004 23:00 12,9 C 97 % 1018 hPa 0,0 l/m 12,4 C 12,8 C 0,6 km/h (0 Bft)
08.10.2004 00:00 12,7 C 98 % 1018 hPa 0,0 l/m 12,4 C 12,7 C 0,0 km/h (0 Bft)
08.10.2004 01:00 12,7 C 98 % 1018 hPa 0,0 l/m 12,3 C 12,5 C 3,2 km/h (1 Bft)
08.10.2004 02:00 12,6 C 98 % 1018 hPa 0,0 l/m 12,3 C 12,6 C 1,6 km/h (1 Bft)
08.10.2004 03:00 12,5 C 98 % 1017 hPa 0,0 l/m 12,2 C 12,5 C 0,0 km/h (0 Bft)
08.10.2004 04:00 12,4 C 98 % 1017 hPa 0,0 l/m 12,1 C 12,4 C 0,0 km/h (0 Bft)
08.10.2004 05:00 12,4 C 98 % 1016 hPa 0,0 l/m 12,1 C 12,4 C 0,0 km/h (0 Bft)
08.10.2004 06:00 12,3 C 98 % 1016 hPa 0,0 l/m 12,0 C 12,3 C 0,0 km/h (0 Bft)
08.10.2004 07:00 12,3 C 98 % 1016 hPa 0,0 l/m 12,0 C 12,3 C 0,1 km/h (0 Bft)
08.10.2004 08:00 12,4 C 98 % 1016 hPa 0,0 l/m 12,1 C 12,4 C 1,1 km/h (1 Bft)
08.10.2004 09:00 12,8 C 98 % 1016 hPa 0,0 l/m 12,5 C 11,4 C 8,9 km/h (2 Bft)
08.10.2004 10:00 13,6 C 98 % 1016 hPa 0,0 l/m 13,3 C 11,9 C 11,1 km/h (2 Bft)
08.10.2004 11:00 15,0 C 97 % 1016 hPa 0,0 l/m 14,6 C 13,7 C 9,6 km/h (2 Bft)
08.10.2004 12:00 16,5 C 90 % 1016 hPa 0,0 l/m 14,8 C 14,8 C 12,0 km/h (2 Bft)
08.10.2004 13:00 19,6 C 70 % 1016 hPa 0,0 l/m 13,9 C 17,2 C 15,8 km/h (3 Bft)
08.10.2004 14:00 19,0 C 67 % 1016 hPa 0,0 l/m 12,7 C 17,9 C 6,9 km/h (2 Bft)
08.10.2004 15:00 18,1 C 73 % 1016 hPa 0,0 l/m 13,1 C 18,0 C 1,9 km/h (1 Bft)
08.10.2004 16:00 17,6 C 78 % 1016 hPa 0,0 l/m 13,7 C 17,6 C 0,5 km/h (0 Bft)
08.10.2004 17:00 17,0 C 84 % 1016 hPa 0,0 l/m 14,3 C 16,9 C 0,2 km/h (0 Bft)
08.10.2004 18:00 16,3 C 88 % 1016 hPa 0,0 l/m 14,3 C 16,3 C 0,0 km/h (0 Bft)
08.10.2004 19:00 15,6 C 91 % 1015 hPa 0,0 l/m 14,2 C 15,6 C 0,0 km/h (0 Bft)
08.10.2004 20:00 15,1 C 94 % 1015 hPa 1,0 l/m 14,1 C 15,1 C 0,0 km/h (0 Bft)
08.10.2004 21:00 14,9 C 96 % 1015 hPa 0,0 l/m 14,3 C 14,9 C 0,7 km/h (0 Bft)
08.10.2004 22:00 14,7 C 98 % 1015 hPa 0,0 l/m 14,3 C 14,6 C 1,6 km/h (1 Bft)
08.10.2004 23:00 13,8 C 98 % 1015 hPa 2,0 l/m 13,5 C 12,5 C 8,3 km/h (2 Bft)
09.10.2004 00:00 12,9 C 98 % 1015 hPa 1,0 l/m 12,6 C 11,9 C 7,6 km/h (2 Bft)
09.10.2004 01:00 12,3 C 98 % 1015 hPa 2,0 l/m 12,0 C 11,8 C 4,3 km/h (1 Bft)
09.10.2004 02:00 12,1 C 98 % 1015 hPa 0,0 l/m 11,8 C 12,1 C 0,2 km/h (0 Bft)
09.10.2004 03:00 11,8 C 98 % 1015 hPa 0,0 l/m 11,5 C 11,6 C 2,7 km/h (1 Bft)
09.10.2004 04:00 11,4 C 98 % 1015 hPa 0,0 l/m 11,1 C 11,0 C 2,6 km/h (1 Bft)
09.10.2004 05:00 11,1 C 98 % 1015 hPa 1,0 l/m 10,7 C 10,2 C 7,4 km/h (2 Bft)
09.10.2004 06:00 10,4 C 98 % 1015 hPa 0,0 l/m 10,1 C 8,7 C 9,7 km/h (2 Bft)
09.10.2004 07:00 9,7 C 98 % 1015 hPa 0,0 l/m 9,4 C 6,6 C 13,2 km/h (3 Bft)
09.10.2004 08:00 9,3 C 98 % 1015 hPa 0,0 l/m 9,0 C 6,7 C 12,0 km/h (2 Bft)
09.10.2004 09:00 9,1 C 98 % 1016 hPa 2,0 l/m 8,8 C 6,7 C 11,6 km/h (2 Bft)
09.10.2004 10:00 9,0 C 98 % 1016 hPa 3,0 l/m 8,7 C 6,2 C 12,2 km/h (2 Bft)
09.10.2004 11:00 9,1 C 98 % 1016 hPa 0,0 l/m 8,8 C 5,1 C 14,5 km/h (3 Bft)
09.10.2004 12:00 9,2 C 95 % 1016 hPa 0,0 l/m 8,4 C 4,6 C 16,3 km/h (3 Bft)
09.10.2004 13:00 9,6 C 93 % 1016 hPa 0,0 l/m 8,5 C 5,7 C 14,7 km/h (3 Bft)
09.10.2004 14:00 10,4 C 90 % 1015 hPa 0,0 l/m 8,8 C 7,4 C 12,7 km/h (3 Bft)
09.10.2004 15:00 10,5 C 88 % 1015 hPa 0,0 l/m 8,7 C 7,0 C 14,3 km/h (3 Bft)
09.10.2004 16:00 10,4 C 88 % 1015 hPa 0,0 l/m 8,6 C 7,3 C 12,3 km/h (3 Bft)
09.10.2004 17:00 10,3 C 90 % 1014 hPa 0,0 l/m 8,7 C 7,2 C 12,8 km/h (3 Bft)
09.10.2004 18:00 10,0 C 92 % 1014 hPa 0,0 l/m 8,8 C 8,0 C 10,3 km/h (2 Bft)
09.10.2004 19:00 9,6 C 96 % 1014 hPa 0,0 l/m 9,0 C 7,0 C 12,3 km/h (3 Bft)
09.10.2004 20:00 9,4 C 97 % 1014 hPa 0,0 l/m 9,0 C 7,2 C 11,5 km/h (2 Bft)
09.10.2004 21:00 9,3 C 98 % 1013 hPa 0,0 l/m 9,0 C 7,1 C 11,2 km/h (2 Bft)
09.10.2004 22:00 9,2 C 98 % 1013 hPa 0,0 l/m 8,9 C 8,1 C 7,9 km/h (2 Bft)
09.10.2004 23:00 9,3 C 98 % 1013 hPa 1,0 l/m 9,0 C 8,3 C 7,5 km/h (2 Bft)
10.10.2004 00:00 9,3 C 98 % 1012 hPa 1,0 l/m 9,0 C 7,1 C 10,1 km/h (2 Bft)
10.10.2004 01:00 9,2 C 98 % 1012 hPa 5,0 l/m 8,9 C 6,1 C 13,4 km/h (3 Bft)
10.10.2004 02:00 9,0 C 98 % 1014 hPa 7,0 l/m 8,7 C 6,9 C 10,9 km/h (2 Bft)
10.10.2004 03:00 8,8 C 98 % 1013 hPa 0,0 l/m 8,5 C 7,5 C 9,0 km/h (2 Bft)
10.10.2004 04:00 8,8 C 98 % 1012 hPa 0,0 l/m 8,5 C 7,8 C 7,2 km/h (2 Bft)
10.10.2004 05:00 8,9 C 98 % 1012 hPa 0,0 l/m 8,6 C 8,2 C 6,6 km/h (2 Bft)
10.10.2004 06:00 8,8 C 98 % 1012 hPa 0,0 l/m 8,5 C 6,9 C 8,5 km/h (2 Bft)
10.10.2004 07:00 8,6 C 98 % 1012 hPa 0,0 l/m 8,3 C 6,5 C 10,9 km/h (2 Bft)
10.10.2004 08:00 8,5 C 98 % 1012 hPa 0,0 l/m 8,2 C 5,8 C 11,6 km/h (2 Bft)
10.10.2004 09:00 8,5 C 98 % 1012 hPa 0,0 l/m 8,2 C 4,0 C 15,5 km/h (3 Bft)
10.10.2004 10:00 8,6 C 98 % 1012 hPa 0,0 l/m 8,4 C 3,4 C 17,0 km/h (3 Bft)
10.10.2004 11:00 8,7 C 98 % 1011 hPa 0,0 l/m 8,5 C 3,7 C 17,9 km/h (3 Bft)
10.10.2004 12:00 9,1 C 97 % 1011 hPa 0,0 l/m 8,6 C 3,8 C 18,1 km/h (3 Bft)
10.10.2004 13:00 9,4 C 93 % 1011 hPa 0,0 l/m 8,4 C 4,2 C 17,8 km/h (3 Bft)
10.10.2004 14:00 9,1 C 93 % 1012 hPa 0,0 l/m 8,1 C 4,5 C 16,3 km/h (3 Bft)
10.10.2004 15:00 8,9 C 93 % 1012 hPa 0,0 l/m 7,9 C 4,1 C 17,1 km/h (3 Bft)
10.10.2004 16:00 8,8 C 94 % 1012 hPa 0,0 l/m 7,9 C 4,5 C 16,5 km/h (3 Bft)
10.10.2004 17:00 8,5 C 96 % 1012 hPa 1,0 l/m 8,0 C 4,2 C 14,6 km/h (3 Bft)
10.10.2004 18:00 8,1 C 97 % 1013 hPa 2,0 l/m 7,6 C 4,8 C 13,1 km/h (3 Bft)
10.10.2004 19:00 8,0 C 97 % 1013 hPa 1,0 l/m 7,5 C 5,4 C 11,3 km/h (2 Bft)
10.10.2004 20:00 7,8 C 97 % 1014 hPa 0,0 l/m 7,3 C 4,8 C 12,1 km/h (2 Bft)
10.10.2004 21:00 7,5 C 95 % 1014 hPa 2,0 l/m 6,8 C 3,0 C 15,3 km/h (3 Bft)
10.10.2004 22:00 7,1 C 92 % 1015 hPa 0,0 l/m 5,8 C 1,5 C 17,3 km/h (3 Bft)
10.10.2004 23:00 7,0 C 91 % 1015 hPa 1,0 l/m 5,7 C 1,8 C 16,5 km/h (3 Bft)
Min-Datum _ 04.10.04 05.10.04 10.10.04 - 04.10.04 10.10.04 04.10.04
_ Min-Zeit 07:36 13:56 11:00 - 07:36 01:57 00:00
Minimum _ 5,4 C 37 % 1011 hPa - 5,1 C -1,3 C 0,0 km/h (0 Bft)
Max-Datum _ 05.10.04 04.10.04 04.10.04 10.10.04 08.10.04 05.10.04 10.10.04
_ Max-Zeit 15:06 06:13 00:00 01:00 12:46 15:06 01:57
Maximum _ 26,1 C 98 % 1022 hPa 7,0 l/m 15,4 C 26,1 C 49,4 km/h
N-NO (6 Bft)
Durchschnitt _ 12,8 C 88 % 1017 hPa #35,0 l/m 10,6 C 11,8 C 5,4 km/h (1 Bft)

Durchschnitt Minimum Temp.12,3 C
Durchschnitt Maximum Temp.13,4 C